Kalamazoo Battle Creek International Airport
KAZO : now visible

Airfield :











YOU CAN JOIN US ON...

 
LOGIN :

Register | Disclaimer

   EN    FR    IT 

 









Legend :    VFR   Marginal VFR   IFR   Intensive IFR   Very Intensive IFR
Visi :
Ceiling :
>= 8 km
>= 3000ft
5 to 8 km
1000 to 3000 ft
1500m to 5 km
500 to 1000 ft
800 to 1500m
200 to 500 ft
< 800m
< 200 ft
Symbols :   Thunderstorms  Fog  Heavy snow  Heavy precipitations  Wind > 20 kt







- Airport Elevation : 874 ft
- IATA code : AZO


KAZO - Kalamazoo Battle Creek International

CURRENT METAR :
  • 181853Z 17010G19KT 10SM SCT110 24/22 A2981 RMK AO2 RAE02B33E42 PRESFR SLP089 P0000 T02440217

EXPIRED METARs :
  • 181800Z 22008KT 10SM -RA BKN012 BKN090 24/22 A2998 RMK AO2 P0000 T02440217
  • 181753Z 23007KT 10SM VCTS -RA BKN015 BKN041 OVC049 24/22 A2999 RMK AO2 SLP149 P0002 60003 T02440217 10267 20239 50017
  • 181653Z 30010G19KT 8SM VCTS -RA BKN015 BKN041 OVC049 25/22 A2999 RMK AO2 LTG DSNT NE AND W RAB36 SLP150 P0001 T02500217
  • 181631Z 28008G20KT 10SM VCTS SCT020 OVC043 26/21 A2998 RMK AO2 LTG DSNT SW AND NW T02610211

TAF KAZO
Valid from the 18 at 18:00 until the 19 at 18:00 UTC


181740Z 1818/1918 30012G21KT P6SM -SHRA VCTS BKN015CB
FM182300 20014G22KT P6SM SCT200
FM190900 21009KT P6SM BKN090 WS020/26035KT
FM191300 22011KT P6SM BKN045
FM191700 23013G21KT P6SM SCT070
KZAU FIR / North America



MET'MAP, your aeronautical weather chart ! - Copyright ORBIFLY December 2007 - Disclaimer

ORBIFLY MET'MAP TEAM :

Programming & Development : Alexandra Zaïnal
Concept & Development : Baudouin d'Aumeries
Co-Development & Prog : Marc-Olivier Méhu
Technical & hardware support : Manuel Goepfert

Contact : metmap@orbifly.com




SOURCES & CREDITS :

   NOAA       Earth
Advisory